createdAt,value
2023-04-11T00:00:35.183Z,18.66
2023-04-11T00:03:01.936Z,18.66
2023-04-11T00:05:31.377Z,18.64
2023-04-11T00:07:58.126Z,18.64
2023-04-11T00:10:25.315Z,18.63
2023-04-11T00:12:56.525Z,18.62
2023-04-11T00:15:24.554Z,18.62
2023-04-11T00:17:51.309Z,18.61
2023-04-11T00:20:17.907Z,18.61
2023-04-11T00:22:44.426Z,18.60
2023-04-11T00:25:11.116Z,18.60
2023-04-11T00:27:37.703Z,18.59
2023-04-11T00:30:08.056Z,18.58
2023-04-11T00:32:34.698Z,18.57
2023-04-11T00:35:01.802Z,18.57
2023-04-11T00:37:28.427Z,18.56
2023-04-11T00:39:55.910Z,18.55
2023-04-11T00:42:22.462Z,18.55
2023-04-11T00:44:49.179Z,18.55
2023-04-11T00:47:15.810Z,18.53
2023-04-11T00:49:42.776Z,18.53
2023-04-11T00:52:09.464Z,18.53
2023-04-11T00:54:36.021Z,18.53
2023-04-11T00:57:04.317Z,18.53
2023-04-11T00:59:32.634Z,18.53
2023-04-11T01:02:00.175Z,18.53
2023-04-11T01:04:27.196Z,18.52
2023-04-11T01:06:59.039Z,18.50
2023-04-11T01:09:28.532Z,18.52
2023-04-11T01:11:56.202Z,18.51
2023-04-11T01:14:24.663Z,18.51
2023-04-11T01:16:52.061Z,18.50
2023-04-11T01:19:20.356Z,18.50
2023-04-11T01:21:49.796Z,18.50
2023-04-11T01:24:16.732Z,18.50
2023-04-11T01:26:43.471Z,18.49
2023-04-11T01:29:10.143Z,18.48
2023-04-11T01:31:36.662Z,18.48
2023-04-11T01:34:04.454Z,18.48
2023-04-11T01:36:32.299Z,18.47
2023-04-11T01:38:59.243Z,18.48
2023-04-11T01:41:27.541Z,18.47
2023-04-11T01:43:54.276Z,18.47
2023-04-11T01:46:21.898Z,18.47
2023-04-11T01:48:50.893Z,18.47
2023-04-11T01:51:17.432Z,18.46
2023-04-11T01:53:45.979Z,18.47
2023-04-11T01:56:13.057Z,18.46
2023-04-11T01:58:39.830Z,18.46
2023-04-11T02:01:06.428Z,18.46
2023-04-11T02:03:33.140Z,18.46
2023-04-11T02:05:59.748Z,18.45
2023-04-11T02:08:26.279Z,18.45
2023-04-11T02:10:52.835Z,18.43
2023-04-11T02:13:19.357Z,18.43
2023-04-11T02:15:45.883Z,18.42
2023-04-11T02:18:13.109Z,18.42
2023-04-11T02:20:42.187Z,18.42
2023-04-11T02:23:08.768Z,18.42
2023-04-11T02:25:35.334Z,18.41
2023-04-11T02:28:02.117Z,18.40
2023-04-11T02:30:28.723Z,18.40
2023-04-11T02:32:55.306Z,18.39
2023-04-11T02:35:21.843Z,18.38
2023-04-11T02:37:48.383Z,18.38
2023-04-11T02:40:14.970Z,18.37
2023-04-11T02:42:43.174Z,18.37
2023-04-11T02:45:11.736Z,18.35
2023-04-11T02:47:39.429Z,18.35
2023-04-11T02:50:06.658Z,18.34
2023-04-11T02:52:33.783Z,18.33
2023-04-11T02:55:00.480Z,18.32
2023-04-11T02:57:27.749Z,18.32
2023-04-11T02:59:54.328Z,18.32
2023-04-11T03:02:23.302Z,18.31
2023-04-11T03:04:50.224Z,18.32
2023-04-11T03:07:16.765Z,18.30
2023-04-11T03:09:43.339Z,18.30
2023-04-11T03:12:09.887Z,18.30
2023-04-11T03:14:36.393Z,18.31
2023-04-11T03:17:02.928Z,18.30
2023-04-11T03:19:29.498Z,18.30
2023-04-11T03:21:56.454Z,18.30
2023-04-11T03:24:22.997Z,18.28
2023-04-11T03:26:49.559Z,18.27
2023-04-11T03:29:16.596Z,18.26
2023-04-11T03:31:43.230Z,18.25
2023-04-11T03:34:09.802Z,18.23
2023-04-11T03:36:36.307Z,18.23
2023-04-11T03:39:03.754Z,18.21
2023-04-11T03:41:30.321Z,18.20
2023-04-11T03:43:56.895Z,18.19
2023-04-11T03:46:23.507Z,18.19
2023-04-11T03:48:50.183Z,18.17
2023-04-11T03:51:16.885Z,18.16
2023-04-11T03:53:43.482Z,18.15
2023-04-11T03:56:10.437Z,18.15
2023-04-11T03:58:37.119Z,18.14
2023-04-11T04:01:03.750Z,18.14
2023-04-11T04:03:30.628Z,18.14
2023-04-11T04:05:57.317Z,18.14
2023-04-11T04:08:23.823Z,18.12
2023-04-11T04:10:50.360Z,18.12
2023-04-11T04:13:17.027Z,18.10
2023-04-11T04:15:43.696Z,18.11
2023-04-11T04:18:10.306Z,18.09
2023-04-11T04:20:36.873Z,18.09
2023-04-11T04:23:04.579Z,18.09
2023-04-11T04:25:31.169Z,18.07
2023-04-11T04:27:58.224Z,18.08
2023-04-11T04:30:28.603Z,18.06
2023-04-11T04:32:59.157Z,18.06
2023-04-11T04:35:26.769Z,18.05
2023-04-11T04:37:54.165Z,18.04
2023-04-11T04:40:21.373Z,18.03
2023-04-11T04:42:58.098Z,18.02
2023-04-11T04:45:26.245Z,17.99
2023-04-11T04:47:52.993Z,17.99
2023-04-11T04:50:20.483Z,17.99
2023-04-11T04:52:47.172Z,17.99
2023-04-11T04:55:14.567Z,17.98
2023-04-11T04:57:42.753Z,17.97
2023-04-11T05:00:11.968Z,17.96
2023-04-11T05:02:40.567Z,17.95
2023-04-11T05:05:07.835Z,17.94
2023-04-11T05:07:34.793Z,17.94
2023-04-11T05:10:01.492Z,17.93
2023-04-11T05:12:28.130Z,17.93
2023-04-11T05:14:56.606Z,17.93
2023-04-11T05:17:25.505Z,17.93
2023-04-11T05:19:52.367Z,17.94
2023-04-11T05:22:18.854Z,17.97
2023-04-11T05:24:45.452Z,17.97
2023-04-11T05:27:13.321Z,17.97
2023-04-11T05:29:40.015Z,17.99
2023-04-11T05:32:06.624Z,18.00
2023-04-11T05:34:34.373Z,18.03
2023-04-11T05:37:01.431Z,18.06
2023-04-11T05:39:28.020Z,18.09
2023-04-11T05:41:54.563Z,18.12
2023-04-11T05:44:21.248Z,18.16
2023-04-11T05:46:47.809Z,18.19
2023-04-11T05:49:14.520Z,18.23
2023-04-11T05:51:41.084Z,18.28
2023-04-11T05:54:07.657Z,18.30
2023-04-11T05:56:35.262Z,18.32
2023-04-11T05:59:01.787Z,18.34
2023-04-11T06:01:30.148Z,18.36
2023-04-11T06:03:57.432Z,18.39
2023-04-11T06:06:24.362Z,18.40
2023-04-11T06:08:51.303Z,18.42
2023-04-11T06:11:17.886Z,18.45
2023-04-11T06:13:44.443Z,18.48
2023-04-11T06:16:11.024Z,18.52
2023-04-11T06:18:37.558Z,18.56
2023-04-11T06:21:04.176Z,18.58
2023-04-11T06:23:30.713Z,18.63
2023-04-11T06:25:57.233Z,18.67
2023-04-11T06:28:23.943Z,18.70
2023-04-11T06:30:50.513Z,18.73
2023-04-11T06:33:17.069Z,18.76
2023-04-11T06:35:43.679Z,18.78
2023-04-11T06:38:10.277Z,18.81
2023-04-11T06:40:36.804Z,18.85
2023-04-11T06:43:03.339Z,18.88
2023-04-11T06:45:29.888Z,18.90
2023-04-11T06:47:56.483Z,18.94
2023-04-11T06:50:23.174Z,18.96
2023-04-11T06:52:49.729Z,18.98
2023-04-11T06:55:16.775Z,18.99
2023-04-11T06:57:43.846Z,19.02
2023-04-11T07:00:12.488Z,19.03
2023-04-11T07:02:39.513Z,19.05
2023-04-11T07:05:06.854Z,19.06
2023-04-11T07:07:33.418Z,19.08
2023-04-11T07:09:59.959Z,19.08
2023-04-11T07:12:26.516Z,19.07
2023-04-11T07:14:53.125Z,19.07
2023-04-11T07:17:19.642Z,19.08
2023-04-11T07:19:46.658Z,19.07
2023-04-11T07:22:13.265Z,19.06
2023-04-11T07:24:39.799Z,19.06
2023-04-11T07:27:06.765Z,19.07
2023-04-11T07:29:33.276Z,19.06
2023-04-11T07:31:59.860Z,19.08
2023-04-11T07:34:26.523Z,19.07
2023-04-11T07:36:53.149Z,19.08
2023-04-11T07:39:19.700Z,19.08
2023-04-11T07:41:46.269Z,19.08
2023-04-11T07:44:12.815Z,19.08
2023-04-11T07:46:39.416Z,19.07
2023-04-11T07:49:06.025Z,19.08
2023-04-11T07:51:33.091Z,19.08
2023-04-11T07:53:59.732Z,19.09
2023-04-11T07:56:26.663Z,19.10
2023-04-11T07:58:53.284Z,19.09
2023-04-11T08:01:21.458Z,19.10
2023-04-11T08:03:48.289Z,19.10
2023-04-11T08:06:14.978Z,19.10
2023-04-11T08:08:41.519Z,19.11
2023-04-11T08:11:08.127Z,19.12
2023-04-11T08:13:34.660Z,19.13
2023-04-11T08:16:02.837Z,19.15
2023-04-11T08:18:29.912Z,19.17
2023-04-11T08:20:56.456Z,19.18
2023-04-11T08:23:22.935Z,19.22
2023-04-11T08:25:49.543Z,19.24
2023-04-11T08:28:16.463Z,19.28
2023-04-11T08:30:43.043Z,19.30
2023-04-11T08:33:10.182Z,19.31
2023-04-11T08:35:37.762Z,19.34
2023-04-11T08:38:04.323Z,19.35
2023-04-11T08:40:30.871Z,19.38
2023-04-11T08:43:01.630Z,19.41
2023-04-11T08:45:28.758Z,19.42
2023-04-11T08:47:55.473Z,19.44
2023-04-11T08:50:29.759Z,19.46
2023-04-11T08:52:59.181Z,19.48
2023-04-11T08:55:25.749Z,19.51
2023-04-11T08:57:53.667Z,19.54
2023-04-11T09:00:24.106Z,19.57
2023-04-11T09:02:59.102Z,19.58
2023-04-11T09:05:31.148Z,19.60
2023-04-11T09:07:59.780Z,19.63
2023-04-11T09:10:27.673Z,19.65
2023-04-11T09:12:55.530Z,19.67
2023-04-11T09:15:25.772Z,19.69
2023-04-11T09:17:52.747Z,19.72
2023-04-11T09:20:21.322Z,19.73
2023-04-11T09:22:51.772Z,19.75
2023-04-11T09:25:23.017Z,19.78
2023-04-11T09:27:50.772Z,19.80
2023-04-11T09:30:25.378Z,19.83
2023-04-11T09:32:53.935Z,19.85
2023-04-11T09:35:25.757Z,19.88
2023-04-11T09:37:59.284Z,19.88
2023-04-11T09:40:27.320Z,19.90
2023-04-11T09:43:02.336Z,19.92
2023-04-11T09:45:32.155Z,19.95
2023-04-11T09:48:02.487Z,19.99
2023-04-11T09:50:29.163Z,20.06
2023-04-11T09:52:58.918Z,20.06
2023-04-11T09:55:25.982Z,20.09
2023-04-11T09:57:54.627Z,20.12
2023-04-11T10:00:24.192Z,20.17
2023-04-11T10:02:53.596Z,20.23
2023-04-11T10:05:27.973Z,20.29
2023-04-11T10:08:22.079Z,20.32
2023-04-11T10:10:48.762Z,20.37
2023-04-11T10:13:40.135Z,20.39
2023-04-11T10:16:09.006Z,20.45
2023-04-11T10:18:36.584Z,20.47
2023-04-11T10:21:04.311Z,20.51
2023-04-11T10:24:17.788Z,20.56
2023-04-11T10:26:51.630Z,20.64
2023-04-11T10:29:42.972Z,20.68
2023-04-11T10:32:15.500Z,20.73
2023-04-11T10:34:54.161Z,20.79
2023-04-11T10:37:38.877Z,20.82
2023-04-11T10:40:10.452Z,20.89
2023-04-11T10:42:42.749Z,20.94
2023-04-11T10:45:19.124Z,20.98
2023-04-11T10:47:51.619Z,21.01
2023-04-11T10:50:27.119Z,21.06
2023-04-11T10:52:55.489Z,21.10
2023-04-11T10:55:22.608Z,21.13
2023-04-11T10:58:08.177Z,21.17
2023-04-11T11:00:48.181Z,21.20
2023-04-11T11:03:16.736Z,21.27
2023-04-11T11:05:43.808Z,21.29
2023-04-11T11:08:10.662Z,21.32
2023-04-11T11:10:47.886Z,21.35
2023-04-11T11:13:15.975Z,21.34
2023-04-11T11:15:49.698Z,21.36
2023-04-11T11:18:16.623Z,21.38
2023-04-11T11:20:43.473Z,21.44
2023-04-11T11:23:11.654Z,21.46
2023-04-11T11:25:38.349Z,21.48
2023-04-11T11:28:07.987Z,21.50
2023-04-11T11:30:38.074Z,21.53
2023-04-11T11:35:53.552Z,21.56
2023-04-11T11:38:21.116Z,21.57
2023-04-11T11:40:48.844Z,21.57
2023-04-11T11:43:16.580Z,21.59
2023-04-11T11:45:43.923Z,21.58
2023-04-11T11:48:23.953Z,21.58
2023-04-11T11:50:57.865Z,21.59
2023-04-11T11:53:26.710Z,21.63
2023-04-11T11:55:53.825Z,21.66
2023-04-11T11:58:20.722Z,21.71
2023-04-11T12:00:50.223Z,21.75
2023-04-11T12:03:24.213Z,21.79
2023-04-11T12:05:55.155Z,21.85
2023-04-11T12:08:24.244Z,21.90
2023-04-11T12:10:51.522Z,21.96
2023-04-11T12:13:27.600Z,21.99
2023-04-11T12:15:56.251Z,22.04
2023-04-11T12:18:28.428Z,22.06
2023-04-11T12:20:55.382Z,22.03
2023-04-11T12:23:22.606Z,22.07
2023-04-11T12:25:49.181Z,22.08
2023-04-11T12:28:15.905Z,22.08
2023-04-11T12:30:42.470Z,22.03
2023-04-11T12:33:09.151Z,21.96
2023-04-11T12:35:35.711Z,21.92
2023-04-11T12:38:02.421Z,21.91
2023-04-11T12:40:29.771Z,21.90
2023-04-11T12:42:57.479Z,21.94
2023-04-11T12:45:25.136Z,21.97
2023-04-11T12:47:52.227Z,22.00
2023-04-11T12:50:18.951Z,22.03
2023-04-11T12:52:45.526Z,22.04
2023-04-11T12:55:13.434Z,22.05
2023-04-11T12:57:40.978Z,22.05
2023-04-11T13:00:08.848Z,22.06
2023-04-11T13:02:42.780Z,22.05
2023-04-11T13:05:13.921Z,22.05
2023-04-11T13:07:41.090Z,22.04
2023-04-11T13:10:08.392Z,22.03
2023-04-11T13:12:39.747Z,22.02
2023-04-11T13:15:07.923Z,22.01
2023-04-11T13:17:34.608Z,22.00
2023-04-11T13:20:01.392Z,21.99
2023-04-11T13:22:27.967Z,21.98
2023-04-11T13:24:54.554Z,21.95
2023-04-11T13:27:22.108Z,21.94
2023-04-11T13:29:48.793Z,21.92
2023-04-11T13:32:15.535Z,21.92
2023-04-11T13:34:42.460Z,21.91
2023-04-11T13:37:09.120Z,21.90
2023-04-11T13:39:35.829Z,21.89
2023-04-11T13:42:02.347Z,21.85
2023-04-11T13:44:28.865Z,21.83
2023-04-11T13:46:55.442Z,21.79
2023-04-11T13:49:21.938Z,21.77
2023-04-11T13:51:48.644Z,21.75
2023-04-11T13:54:15.477Z,21.72
2023-04-11T13:56:42.207Z,21.68
2023-04-11T13:59:08.746Z,21.67
2023-04-11T14:01:35.343Z,21.66
2023-04-11T14:04:02.272Z,21.63
2023-04-11T14:06:28.980Z,21.62
2023-04-11T14:08:55.510Z,21.61
2023-04-11T14:11:22.054Z,21.60
2023-04-11T14:13:48.846Z,21.58
2023-04-11T14:16:15.577Z,21.57
2023-04-11T14:21:08.838Z,21.54
2023-04-11T14:23:35.850Z,21.53
2023-04-11T14:26:02.367Z,21.52
2023-04-11T14:28:28.946Z,21.51
2023-04-11T14:30:56.924Z,21.49
2023-04-11T14:33:23.684Z,21.48
2023-04-11T14:35:50.935Z,21.47
2023-04-11T14:38:17.582Z,21.48
2023-04-11T14:40:44.542Z,21.46
2023-04-11T14:43:11.302Z,21.46
2023-04-11T14:45:38.034Z,21.45
2023-04-11T14:48:04.914Z,21.43
2023-04-11T14:50:31.543Z,21.44
2023-04-11T14:52:58.346Z,21.43
2023-04-11T14:55:24.923Z,21.42
2023-04-11T14:57:53.429Z,21.41
2023-04-11T15:00:20.947Z,21.40
2023-04-11T15:02:50.740Z,21.40
2023-04-11T15:05:18.228Z,21.38
2023-04-11T15:07:46.471Z,21.38
2023-04-11T15:10:14.314Z,21.38
2023-04-11T15:12:41.310Z,21.37
2023-04-11T15:15:11.309Z,21.37
2023-04-11T15:17:47.256Z,21.36
2023-04-11T15:20:15.073Z,21.36
2023-04-11T15:22:44.141Z,21.36
2023-04-11T15:25:13.351Z,21.36
2023-04-11T15:27:41.010Z,21.34
2023-04-11T15:30:08.395Z,21.35
2023-04-11T15:32:35.277Z,21.34
2023-04-11T15:35:02.080Z,21.34
2023-04-11T15:37:29.078Z,21.33
2023-04-11T15:39:57.612Z,21.33
2023-04-11T15:42:24.470Z,21.32
2023-04-11T15:44:51.020Z,21.31
2023-04-11T15:47:17.673Z,21.29
2023-04-11T15:49:44.340Z,21.22
2023-04-11T15:52:11.785Z,21.16
2023-04-11T15:54:38.326Z,21.15
2023-04-11T15:57:04.851Z,21.17
2023-04-11T15:59:31.428Z,21.17
2023-04-11T16:01:58.145Z,21.18
2023-04-11T16:04:25.723Z,21.18
2023-04-11T16:06:52.652Z,21.18
2023-04-11T16:09:19.267Z,21.16
2023-04-11T16:11:45.999Z,21.11
2023-04-11T16:14:12.833Z,21.05
2023-04-11T16:16:39.510Z,21.02
2023-04-11T16:19:06.545Z,20.99
2023-04-11T16:21:33.226Z,21.00
2023-04-11T16:23:59.802Z,21.08
2023-04-11T16:26:27.038Z,21.17
2023-04-11T16:28:53.712Z,21.28
2023-04-11T16:31:24.530Z,21.36
2023-04-11T16:33:52.786Z,21.45
2023-04-11T16:36:20.404Z,21.51
2023-04-11T16:38:49.502Z,21.56
2023-04-11T16:41:17.432Z,21.60
2023-04-11T16:43:44.622Z,21.63
2023-04-11T16:46:15.115Z,21.65
2023-04-11T16:48:42.478Z,21.66
2023-04-11T16:51:10.905Z,21.67
2023-04-11T16:53:38.408Z,21.67
2023-04-11T16:56:05.492Z,21.67
2023-04-11T16:58:32.276Z,21.67
2023-04-11T17:01:00.465Z,21.66
2023-04-11T17:03:27.349Z,21.65
2023-04-11T17:05:54.104Z,21.64
2023-04-11T17:08:20.899Z,21.61
2023-04-11T17:10:47.597Z,21.62
2023-04-11T17:13:14.874Z,21.61
2023-04-11T17:15:41.509Z,21.58
2023-04-11T17:18:08.204Z,21.57
2023-04-11T17:20:34.906Z,21.59
2023-04-11T17:23:01.523Z,21.64
2023-04-11T17:25:30.029Z,21.68
2023-04-11T17:27:57.417Z,21.74
2023-04-11T17:30:23.939Z,21.80
2023-04-11T17:32:50.756Z,21.85
2023-04-11T17:35:17.560Z,21.93
2023-04-11T17:37:44.163Z,21.99
2023-04-11T17:40:12.472Z,22.04
2023-04-11T17:42:39.249Z,22.09
2023-04-11T17:47:42.681Z,22.12
2023-04-11T17:50:12.627Z,22.11
2023-04-11T17:52:41.717Z,22.09
2023-04-11T17:55:10.338Z,22.08
2023-04-11T17:57:37.123Z,22.06
2023-04-11T18:00:14.950Z,22.03
2023-04-11T18:02:42.522Z,21.99
2023-04-11T18:05:20.714Z,21.95
2023-04-11T18:07:50.722Z,21.93
2023-04-11T18:10:18.304Z,21.91
2023-04-11T18:12:48.379Z,21.85
2023-04-11T18:15:15.045Z,21.84
2023-04-11T18:17:42.256Z,21.81
2023-04-11T18:20:10.594Z,21.79
2023-04-11T18:22:39.566Z,21.76
2023-04-11T18:25:07.399Z,21.74
2023-04-11T18:27:36.096Z,21.72
2023-04-11T18:30:04.876Z,21.71
2023-04-11T18:32:36.179Z,21.68
2023-04-11T18:35:07.191Z,21.65
2023-04-11T18:37:40.243Z,21.67
2023-04-11T18:40:14.283Z,21.64
2023-04-11T18:42:47.786Z,21.61
2023-04-11T18:45:17.491Z,21.59
2023-04-11T18:47:47.189Z,21.58
2023-04-11T18:50:14.824Z,21.56
2023-04-11T18:52:42.025Z,21.54
2023-04-11T18:55:10.202Z,21.51
2023-04-11T18:57:38.442Z,21.48
2023-04-11T19:00:16.757Z,21.45
2023-04-11T19:02:44.852Z,21.39
2023-04-11T19:05:13.639Z,21.35
2023-04-11T19:07:44.134Z,21.29
2023-04-11T19:10:11.743Z,21.22
2023-04-11T19:12:38.602Z,21.18
2023-04-11T19:15:08.223Z,21.14
2023-04-11T19:17:38.863Z,21.11
2023-04-11T19:20:13.109Z,21.08
2023-04-11T19:22:43.198Z,21.04
2023-04-11T19:25:11.307Z,21.02
2023-04-11T19:27:40.291Z,21.01
2023-04-11T19:30:08.829Z,20.98
2023-04-11T19:32:38.495Z,20.97
2023-04-11T19:35:08.758Z,20.95
2023-04-11T19:37:36.279Z,20.93
2023-04-11T19:40:15.977Z,20.91
2023-04-11T19:42:43.089Z,20.90
2023-04-11T19:45:11.190Z,20.87
2023-04-11T19:47:39.811Z,20.85
2023-04-11T19:50:09.338Z,20.84
2023-04-11T19:52:36.378Z,20.81
2023-04-11T19:55:03.063Z,20.84
2023-04-11T19:57:29.876Z,20.78
2023-04-11T19:59:57.689Z,20.75
2023-04-11T20:02:24.363Z,20.73
2023-04-11T20:04:52.063Z,20.69
2023-04-11T20:07:18.621Z,20.67
2023-04-11T20:09:45.231Z,20.65
2023-04-11T20:12:11.758Z,20.63
2023-04-11T20:14:38.438Z,20.60
2023-04-11T20:17:08.502Z,20.58
2023-04-11T20:19:37.621Z,20.53
2023-04-11T20:22:04.801Z,20.49
2023-04-11T20:24:31.575Z,20.46
2023-04-11T20:26:58.150Z,20.43
2023-04-11T20:29:32.811Z,20.39
2023-04-11T20:31:59.820Z,20.36
2023-04-11T20:34:26.420Z,20.31
2023-04-11T20:36:53.020Z,20.27
2023-04-11T20:39:19.590Z,20.25
2023-04-11T20:41:46.144Z,20.20
2023-04-11T20:44:13.356Z,20.17
2023-04-11T20:46:40.532Z,20.14
2023-04-11T20:49:07.124Z,20.11
2023-04-11T20:51:34.495Z,20.09
2023-04-11T20:54:01.232Z,20.07
2023-04-11T20:56:27.942Z,20.04
2023-04-11T20:58:54.643Z,20.00
2023-04-11T21:01:22.548Z,19.97
2023-04-11T21:03:51.205Z,19.95
2023-04-11T21:06:17.896Z,19.93
2023-04-11T21:08:44.517Z,19.89
2023-04-11T21:11:11.394Z,19.87
2023-04-11T21:13:37.913Z,19.84
2023-04-11T21:16:04.714Z,19.82
2023-04-11T21:18:31.279Z,19.80
2023-04-11T21:20:57.878Z,19.79
2023-04-11T21:23:24.394Z,19.76
2023-04-11T21:25:50.915Z,19.75
2023-04-11T21:28:17.454Z,19.74
2023-04-11T21:30:44.010Z,19.73
2023-04-11T21:33:10.728Z,19.71
2023-04-11T21:35:37.364Z,19.70
2023-04-11T21:38:03.979Z,19.70
2023-04-11T21:40:30.754Z,19.68
2023-04-11T21:42:57.257Z,19.67
2023-04-11T21:45:23.826Z,19.64
2023-04-11T21:47:53.537Z,19.60
2023-04-11T21:50:20.395Z,19.60
2023-04-11T21:52:47.027Z,19.56
2023-04-11T21:55:15.032Z,19.57
2023-04-11T21:57:42.121Z,19.55
2023-04-11T22:00:11.087Z,19.56
2023-04-11T22:02:38.377Z,19.52
2023-04-11T22:05:07.248Z,19.50
2023-04-11T22:07:38.578Z,19.51
2023-04-11T22:10:09.964Z,19.51
2023-04-11T22:12:36.874Z,19.48
2023-04-11T22:15:05.196Z,19.45
2023-04-11T22:17:32.217Z,19.44
2023-04-11T22:19:58.789Z,19.42
2023-04-11T22:22:30.134Z,19.39
2023-04-11T22:24:59.951Z,19.36
2023-04-11T22:27:27.188Z,19.36
2023-04-11T22:29:57.312Z,19.35
2023-04-11T22:32:24.109Z,19.33
2023-04-11T22:34:51.210Z,19.32
2023-04-11T22:37:20.764Z,19.31
2023-04-11T22:39:47.293Z,19.30
2023-04-11T22:42:13.851Z,19.27
2023-04-11T22:44:40.917Z,19.26
2023-04-11T22:47:15.904Z,19.24
2023-04-11T22:49:42.778Z,19.25
2023-04-11T22:52:14.127Z,19.22
2023-04-11T22:54:41.467Z,19.21
2023-04-11T22:57:08.052Z,19.19
2023-04-11T22:59:34.578Z,19.19
2023-04-11T23:02:01.102Z,19.18
2023-04-11T23:04:27.714Z,19.17
2023-04-11T23:06:54.384Z,19.16
2023-04-11T23:09:21.399Z,19.15
2023-04-11T23:11:48.101Z,19.12
2023-04-11T23:14:15.463Z,19.11
2023-04-11T23:16:43.384Z,19.10
2023-04-11T23:19:10.224Z,19.08
2023-04-11T23:21:39.753Z,19.06
2023-04-11T23:24:06.878Z,19.06
2023-04-11T23:26:33.461Z,19.02
2023-04-11T23:29:02.263Z,19.02
2023-04-11T23:31:29.530Z,19.00
2023-04-11T23:33:56.842Z,18.99
2023-04-11T23:36:23.682Z,18.98
2023-04-11T23:38:50.193Z,18.96
2023-04-11T23:41:16.672Z,18.95
2023-04-11T23:43:43.198Z,18.92
2023-04-11T23:46:09.954Z,18.90
2023-04-11T23:48:36.947Z,18.89
2023-04-11T23:51:03.631Z,18.86
2023-04-11T23:53:31.625Z,18.85
2023-04-11T23:55:58.275Z,18.83
2023-04-11T23:58:24.788Z,18.81
